createdAt,value
2016-12-01T00:00:43.153Z,-2.48
2016-12-01T00:01:43.112Z,-2.49
2016-12-01T00:02:43.067Z,-2.46
2016-12-01T00:03:43.027Z,-2.49
2016-12-01T00:04:43.025Z,-2.48
2016-12-01T00:05:42.633Z,-2.4
2016-12-01T00:06:42.606Z,-2.46
2016-12-01T00:07:42.253Z,-2.46
2016-12-01T00:08:42.813Z,-2.52
2016-12-01T00:09:42.466Z,-2.6
2016-12-01T00:10:42.114Z,-2.7
2016-12-01T00:11:42.379Z,-2.67
2016-12-01T00:12:42.636Z,-2.71
2016-12-01T00:13:42.292Z,-2.74
2016-12-01T00:14:42.247Z,-2.73
2016-12-01T00:15:42.504Z,-2.74
2016-12-01T00:16:41.858Z,-2.73
2016-12-01T00:17:42.121Z,-2.81
2016-12-01T00:18:42.375Z,-2.7
2016-12-01T00:19:41.729Z,-2.82
2016-12-01T00:20:41.988Z,-2.82
2016-12-01T00:21:41.948Z,-2.82
2016-12-01T00:22:41.604Z,-2.74
2016-12-01T00:23:42.162Z,-2.78
2016-12-01T00:24:41.816Z,-2.71
2016-12-01T00:25:42.077Z,-2.86
2016-12-01T00:26:41.733Z,-2.79
2016-12-01T00:27:41.683Z,-2.84
2016-12-01T00:28:41.945Z,-2.97
2016-12-01T00:29:41.903Z,-2.81
2016-12-01T00:30:41.857Z,-2.85
2016-12-01T00:31:41.513Z,-2.85
2016-12-01T00:32:41.771Z,-2.81
2016-12-01T00:33:41.733Z,-2.91
2016-12-01T00:34:41.388Z,-2.82
2016-12-01T00:35:41.644Z,-2.85
2016-12-01T00:36:41.598Z,-2.78
2016-12-01T00:37:41.556Z,-2.92
2016-12-01T00:38:41.519Z,-2.86
2016-12-01T00:39:41.468Z,-2.89
2016-12-01T00:40:40.821Z,-2.89
2016-12-01T00:41:41.388Z,-2.99
2016-12-01T00:42:41.345Z,-2.97
2016-12-01T00:43:41.295Z,-2.99
2016-12-01T00:44:41.257Z,-2.99
2016-12-01T00:45:41.210Z,-2.91
2016-12-01T00:46:40.866Z,-2.97
2016-12-01T00:47:40.825Z,-2.96
2016-12-01T00:48:41.087Z,-2.89
2016-12-01T00:49:41.043Z,-2.99
2016-12-01T00:50:40.689Z,-2.96
2016-12-01T00:51:40.956Z,-2.85
2016-12-01T00:52:40.911Z,-2.94
2016-12-01T00:53:40.862Z,-2.81
2016-12-01T00:54:40.820Z,-2.86
2016-12-01T00:55:40.176Z,-2.84
2016-12-01T00:56:40.746Z,-2.91
2016-12-01T00:57:40.386Z,-2.82
2016-12-01T00:58:40.344Z,-2.84
2016-12-01T00:59:40.604Z,-2.81
2016-12-01T01:00:40.256Z,-2.84
2016-12-01T01:01:40.213Z,-2.84
2016-12-01T01:02:40.473Z,-2.86
2016-12-01T01:03:40.426Z,-2.85
2016-12-01T01:04:40.384Z,-2.81
2016-12-01T01:05:40.341Z,-2.79
2016-12-01T01:06:40.297Z,-2.84
2016-12-01T01:07:39.955Z,-2.79
2016-12-01T01:08:39.610Z,-2.84
2016-12-01T01:09:39.863Z,-2.81
2016-12-01T01:10:39.828Z,-2.82
2016-12-01T01:11:39.479Z,-2.88
2016-12-01T01:12:39.742Z,-2.91
2016-12-01T01:13:39.693Z,-2.89
2016-12-01T01:14:39.653Z,-2.89
2016-12-01T01:15:39.910Z,-2.86
2016-12-01T01:16:39.566Z,-2.86
2016-12-01T01:17:39.827Z,-2.84
2016-12-01T01:18:39.779Z,-2.79
2016-12-01T01:19:39.734Z,-2.82
2016-12-01T01:20:39.694Z,-2.81
2016-12-01T01:21:39.359Z,-2.78
2016-12-01T01:22:39.606Z,-2.7
2016-12-01T01:23:39.260Z,-2.7
2016-12-01T01:24:39.219Z,-2.73
2016-12-01T01:25:39.174Z,-2.74
2016-12-01T01:26:39.434Z,-2.64
2016-12-01T01:27:39.090Z,-2.67
2016-12-01T01:28:38.739Z,-2.71
2016-12-01T01:29:38.701Z,-2.74
2016-12-01T01:30:38.657Z,-2.78
2016-12-01T01:31:39.219Z,-2.78
2016-12-01T01:32:39.174Z,-2.73
2016-12-01T01:33:39.130Z,-2.81
2016-12-01T01:34:38.487Z,-2.81
2016-12-01T01:35:39.050Z,-2.92
2016-12-01T01:36:39.000Z,-2.81
2016-12-01T01:37:38.961Z,-2.78
2016-12-01T01:38:38.916Z,-2.81
2016-12-01T01:39:38.875Z,-2.84
2016-12-01T01:40:38.831Z,-2.77
2016-12-01T01:41:38.812Z,-2.79
2016-12-01T01:42:38.742Z,-2.68
2016-12-01T01:43:38.699Z,-2.73
2016-12-01T01:44:38.665Z,-2.78
2016-12-01T01:45:38.615Z,-2.78
2016-12-01T01:46:38.567Z,-2.68
2016-12-01T01:47:38.525Z,-2.73
2016-12-01T01:48:38.179Z,-2.73
2016-12-01T01:49:38.135Z,-2.73
2016-12-01T01:50:38.094Z,-2.7
2016-12-01T01:51:38.352Z,-2.66
2016-12-01T01:52:38.308Z,-2.73
2016-12-01T01:53:38.269Z,-2.73
2016-12-01T01:54:38.222Z,-2.73
2016-12-01T01:55:38.184Z,-2.78
2016-12-01T01:56:38.137Z,-2.86
2016-12-01T01:57:38.099Z,-2.74
2016-12-01T01:58:38.047Z,-2.85
2016-12-01T01:59:38.006Z,-2.82
2016-12-01T02:00:37.658Z,-2.92
2016-12-01T02:01:37.921Z,-2.82
2016-12-01T02:02:37.575Z,-2.89
2016-12-01T02:03:37.829Z,-2.88
2016-12-01T02:04:37.484Z,-2.77
2016-12-01T02:05:37.443Z,-2.82
2016-12-01T02:06:37.700Z,-2.74
2016-12-01T02:07:37.661Z,-2.79
2016-12-01T02:08:37.617Z,-2.73
2016-12-01T02:09:37.577Z,-2.6
2016-12-01T02:10:37.530Z,-2.61
2016-12-01T02:11:37.184Z,-2.58
2016-12-01T02:12:37.441Z,-2.5
2016-12-01T02:13:36.794Z,-2.53
2016-12-01T02:14:37.358Z,-2.55
2016-12-01T02:15:37.311Z,-2.58
2016-12-01T02:16:37.281Z,-2.61
2016-12-01T02:17:36.929Z,-2.61
2016-12-01T02:18:36.881Z,-2.73
2016-12-01T02:19:36.836Z,-2.71
2016-12-01T02:20:37.097Z,-2.78
2016-12-01T02:21:36.750Z,-2.86
2016-12-01T02:22:36.485Z,-2.81
2016-12-01T02:23:36.661Z,-2.85
2016-12-01T02:24:36.923Z,-2.91
2016-12-01T02:25:36.877Z,-2.86
2016-12-01T02:26:36.534Z,-2.94
2016-12-01T02:27:36.491Z,-2.86
2016-12-01T02:28:36.749Z,-2.94
2016-12-01T02:29:36.707Z,-2.99
2016-12-01T02:30:36.359Z,-2.97
2016-12-01T02:31:36.317Z,-2.96
2016-12-01T02:32:36.575Z,-2.99
2016-12-01T02:33:36.534Z,-2.97
2016-12-01T02:34:36.185Z,-3.02
2016-12-01T02:35:36.455Z,-2.94
2016-12-01T02:36:36.402Z,-3.06
2016-12-01T02:37:36.056Z,-2.99
2016-12-01T02:38:36.318Z,-2.96
2016-12-01T02:39:35.972Z,-3.05
2016-12-01T02:40:36.227Z,-3.02
2016-12-01T02:41:35.580Z,-2.96
2016-12-01T02:42:35.858Z,-2.99
2016-12-01T02:43:36.101Z,-2.97
2016-12-01T02:44:35.604Z,-2.96
2016-12-01T02:45:36.017Z,-2.85
2016-12-01T02:46:35.671Z,-2.89
2016-12-01T02:47:35.929Z,-2.99
2016-12-01T02:48:35.883Z,-2.97
2016-12-01T02:49:35.839Z,-2.99
2016-12-01T02:50:35.795Z,-3
2016-12-01T02:51:35.753Z,-2.91
2016-12-01T02:52:35.710Z,-2.94
2016-12-01T02:53:35.667Z,-2.92
2016-12-01T02:54:35.622Z,-3.1
2016-12-01T02:55:35.576Z,-3.12
2016-12-01T02:56:34.931Z,-3
2016-12-01T02:57:35.494Z,-3.09
2016-12-01T02:58:35.448Z,-3.1
2016-12-01T02:59:35.405Z,-3.1
2016-12-01T03:00:35.363Z,-3.02
2016-12-01T03:01:35.319Z,-3.07
2016-12-01T03:02:34.970Z,-3.09
2016-12-01T03:03:35.233Z,-3.05
2016-12-01T03:04:35.192Z,-3.07
2016-12-01T03:05:34.541Z,-3.1
2016-12-01T03:06:35.102Z,-3.09
2016-12-01T03:07:35.063Z,-2.99
2016-12-01T03:08:35.018Z,-2.99
2016-12-01T03:09:34.669Z,-2.97
2016-12-01T03:10:34.626Z,-2.92
2016-12-01T03:11:34.584Z,-3.02
2016-12-01T03:12:34.844Z,-3.05
2016-12-01T03:13:34.798Z,-2.89
2016-12-01T03:14:34.452Z,-2.96
2016-12-01T03:15:34.715Z,-3
2016-12-01T03:16:34.697Z,-2.97
2016-12-01T03:17:34.628Z,-3.02
2016-12-01T03:18:34.583Z,-3
2016-12-01T03:19:34.538Z,-2.99
2016-12-01T03:20:34.203Z,-2.99
2016-12-01T03:21:34.455Z,-3.05
2016-12-01T03:22:34.410Z,-2.99
2016-12-01T03:23:34.368Z,-2.97
2016-12-01T03:24:34.040Z,-2.97
2016-12-01T03:25:34.278Z,-3.06
2016-12-01T03:26:34.236Z,-3.1
2016-12-01T03:27:33.897Z,-3.09
2016-12-01T03:28:34.148Z,-3.06
2016-12-01T03:29:34.107Z,-2.97
2016-12-01T03:30:34.071Z,-3.05
2016-12-01T03:31:33.723Z,-2.97
2016-12-01T03:32:33.975Z,-2.99
2016-12-01T03:33:33.936Z,-2.94
2016-12-01T03:34:33.893Z,-3.03
2016-12-01T03:35:33.844Z,-2.94
2016-12-01T03:36:33.803Z,-3.02
2016-12-01T03:37:33.456Z,-3.02
2016-12-01T03:38:33.714Z,-3.03
2016-12-01T03:39:33.364Z,-2.99
2016-12-01T03:40:33.626Z,-2.97
2016-12-01T03:41:33.585Z,-2.96
2016-12-01T03:42:33.251Z,-2.88
2016-12-01T03:43:32.889Z,-3.02
2016-12-01T03:44:33.456Z,-2.91
2016-12-01T03:45:33.411Z,-2.86
2016-12-01T03:46:32.760Z,-2.88
2016-12-01T03:47:33.022Z,-2.96
2016-12-01T03:48:32.975Z,-2.96
2016-12-01T03:49:33.236Z,-3
2016-12-01T03:50:33.191Z,-2.96
2016-12-01T03:51:33.152Z,-3.02
2016-12-01T03:52:32.504Z,-3.03
2016-12-01T03:53:32.760Z,-3.07
2016-12-01T03:54:32.714Z,-3.07
2016-12-01T03:55:32.979Z,-2.99
2016-12-01T03:56:32.927Z,-2.99
2016-12-01T03:57:32.889Z,-3.1
2016-12-01T03:58:32.847Z,-3.06
2016-12-01T03:59:32.196Z,-3.18
2016-12-01T04:00:32.756Z,-3.15
2016-12-01T04:01:32.411Z,-3.21
2016-12-01T04:02:32.673Z,-3.27
2016-12-01T04:03:32.636Z,-3.25
2016-12-01T04:04:32.280Z,-3.31
2016-12-01T04:05:32.236Z,-3.25
2016-12-01T04:06:32.519Z,-3.33
2016-12-01T04:07:32.450Z,-3.21
2016-12-01T04:08:32.409Z,-3.27
2016-12-01T04:09:32.062Z,-3.33
2016-12-01T04:10:32.318Z,-3.25
2016-12-01T04:11:31.976Z,-3.25
2016-12-01T04:12:32.244Z,-3.36
2016-12-01T04:13:31.886Z,-3.21
2016-12-01T04:14:31.846Z,-3.23
2016-12-01T04:15:31.801Z,-3.2
2016-12-01T04:16:32.060Z,-3.28
2016-12-01T04:17:32.018Z,-3.24
2016-12-01T04:18:31.969Z,-3.24
2016-12-01T04:19:31.925Z,-3.25
2016-12-01T04:20:31.887Z,-3.27
2016-12-01T04:21:31.546Z,-3.24
2016-12-01T04:22:31.795Z,-3.21
2016-12-01T04:23:31.753Z,-3.28
2016-12-01T04:24:31.404Z,-3.31
2016-12-01T04:25:31.364Z,-3.3
2016-12-01T04:26:31.625Z,-3.21
2016-12-01T04:27:31.275Z,-3.24
2016-12-01T04:28:31.234Z,-3.18
2016-12-01T04:29:31.182Z,-3.18
2016-12-01T04:30:31.455Z,-3.1
2016-12-01T04:31:31.100Z,-3.17
2016-12-01T04:32:31.357Z,-3.1
2016-12-01T04:33:31.313Z,-3.07
2016-12-01T04:34:30.973Z,-3.02
2016-12-01T04:35:31.229Z,-3.02
2016-12-01T04:36:30.885Z,-3.06
2016-12-01T04:37:31.173Z,-3.14
2016-12-01T04:38:31.098Z,-3.07
2016-12-01T04:39:31.059Z,-3.06
2016-12-01T04:40:31.015Z,-3.06
2016-12-01T04:41:30.971Z,-3.14
2016-12-01T04:42:30.931Z,-3.09
2016-12-01T04:43:30.883Z,-3.18
2016-12-01T04:44:30.543Z,-3.1
2016-12-01T04:45:30.496Z,-3.15
2016-12-01T04:46:30.752Z,-3.1
2016-12-01T04:47:30.409Z,-3.05
2016-12-01T04:48:30.359Z,-3.03
2016-12-01T04:49:30.619Z,-3.06
2016-12-01T04:50:30.575Z,-3.15
2016-12-01T04:51:30.227Z,-3.1
2016-12-01T04:52:30.490Z,-3.09
2016-12-01T04:53:30.442Z,-3.06
2016-12-01T04:54:30.100Z,-3.03
2016-12-01T04:55:30.360Z,-3.02
2016-12-01T04:56:30.322Z,-3.07
2016-12-01T04:57:30.288Z,-3.05
2016-12-01T04:58:30.227Z,-3.06
2016-12-01T04:59:29.883Z,-3.09
2016-12-01T05:00:30.141Z,-3.07
2016-12-01T05:01:30.100Z,-3.14
2016-12-01T05:02:30.051Z,-3.07
2016-12-01T05:03:29.704Z,-3.09
2016-12-01T05:04:29.968Z,-3.1
2016-12-01T05:05:29.918Z,-3.06
2016-12-01T05:06:29.874Z,-3.06
2016-12-01T05:07:29.834Z,-3.02
2016-12-01T05:08:29.490Z,-2.96
2016-12-01T05:09:29.444Z,-3.02
2016-12-01T05:10:29.703Z,-3.03
2016-12-01T05:11:29.362Z,-3.02
2016-12-01T05:12:29.619Z,-3.02
2016-12-01T05:13:29.271Z,-2.97
2016-12-01T05:14:29.234Z,-2.84
2016-12-01T05:15:29.484Z,-2.88
2016-12-01T05:16:29.474Z,-2.88
2016-12-01T05:17:29.403Z,-2.88
2016-12-01T05:18:28.760Z,-2.86
2016-12-01T05:19:29.006Z,-2.84
2016-12-01T05:20:29.270Z,-2.86
2016-12-01T05:21:29.225Z,-2.84
2016-12-01T05:22:29.180Z,-2.79
2016-12-01T05:23:28.867Z,-2.74
2016-12-01T05:24:29.092Z,-2.68
2016-12-01T05:25:29.052Z,-2.79
2016-12-01T05:26:28.706Z,-2.68
2016-12-01T05:27:28.664Z,-2.66
2016-12-01T05:28:28.618Z,-2.74
2016-12-01T05:29:28.880Z,-2.71
2016-12-01T05:30:28.836Z,-2.78
2016-12-01T05:31:28.792Z,-2.63
2016-12-01T05:32:28.751Z,-2.61
2016-12-01T05:33:28.707Z,-2.64
2016-12-01T05:34:28.660Z,-2.7
2016-12-01T05:35:28.316Z,-2.61
2016-12-01T05:36:27.968Z,-2.56
2016-12-01T05:37:28.526Z,-2.56
2016-12-01T05:38:28.490Z,-2.49
2016-12-01T05:39:28.141Z,-2.48
2016-12-01T05:40:28.400Z,-2.46
2016-12-01T05:41:28.054Z,-2.46
2016-12-01T05:42:28.313Z,-2.49
2016-12-01T05:43:27.971Z,-2.45
2016-12-01T05:44:28.227Z,-2.3
2016-12-01T05:45:28.189Z,-2.4
2016-12-01T05:46:28.137Z,-2.34
2016-12-01T05:47:27.801Z,-2.35
2016-12-01T05:48:28.051Z,-2.26
2016-12-01T05:49:28.011Z,-2.26
2016-12-01T05:50:27.660Z,-2.29
2016-12-01T05:51:27.924Z,-2.26
2016-12-01T05:52:27.582Z,-2.24
2016-12-01T05:53:27.836Z,-2.18
2016-12-01T05:54:27.790Z,-2.15
2016-12-01T05:55:27.750Z,-2.29
2016-12-01T05:56:27.401Z,-2.21
2016-12-01T05:57:27.662Z,-2.13
2016-12-01T05:58:27.617Z,-2.13
2016-12-01T05:59:27.577Z,-2.16
2016-12-01T06:00:27.536Z,-2.2
2016-12-01T06:01:27.497Z,-2.15
2016-12-01T06:02:27.447Z,-2.18
2016-12-01T06:03:27.409Z,-2.27
2016-12-01T06:04:27.058Z,-2.18
2016-12-01T06:05:27.316Z,-2.21
2016-12-01T06:06:27.271Z,-2.26
2016-12-01T06:07:27.231Z,-2.21
2016-12-01T06:08:26.584Z,-2.29
2016-12-01T06:09:27.143Z,-2.32
2016-12-01T06:10:27.124Z,-2.3
2016-12-01T06:11:27.056Z,-2.48
2016-12-01T06:12:26.712Z,-2.43
2016-12-01T06:13:26.979Z,-2.46
2016-12-01T06:14:26.928Z,-2.48
2016-12-01T06:15:26.883Z,-2.53
2016-12-01T06:16:26.538Z,-2.48
2016-12-01T06:17:26.810Z,-2.58
2016-12-01T06:18:26.454Z,-2.48
2016-12-01T06:19:26.711Z,-2.48
2016-12-01T06:20:26.675Z,-2.56
2016-12-01T06:21:26.056Z,-2.53
2016-12-01T06:22:26.581Z,-2.63
2016-12-01T06:23:26.236Z,-2.68
2016-12-01T06:24:26.192Z,-2.74
2016-12-01T06:25:25.850Z,-2.74
2016-12-01T06:26:26.411Z,-2.73
2016-12-01T06:27:26.371Z,-2.77
2016-12-01T06:28:26.324Z,-2.71
2016-12-01T06:29:26.307Z,-2.73
2016-12-01T06:30:26.234Z,-2.64
2016-12-01T06:31:25.893Z,-2.73
2016-12-01T06:32:26.155Z,-2.63
2016-12-01T06:33:26.107Z,-2.67
2016-12-01T06:34:25.773Z,-2.64
2016-12-01T06:35:25.716Z,-2.67
2016-12-01T06:36:25.675Z,-2.6
2016-12-01T06:37:25.974Z,-2.55
2016-12-01T06:38:25.886Z,-2.55
2016-12-01T06:39:25.540Z,-2.53
2016-12-01T06:40:25.803Z,-2.4
2016-12-01T06:41:25.769Z,-2.46
2016-12-01T06:42:25.715Z,-2.49
2016-12-01T06:43:25.370Z,-2.37
2016-12-01T06:44:25.326Z,-2.3
2016-12-01T06:45:25.283Z,-2.34
2016-12-01T06:46:25.549Z,-2.35
2016-12-01T06:47:25.500Z,-2.34
2016-12-01T06:48:25.461Z,-2.4
2016-12-01T06:49:25.411Z,-2.3
2016-12-01T06:50:25.371Z,-2.27
2016-12-01T06:51:25.334Z,-2.24
2016-12-01T06:52:25.283Z,-2.26
2016-12-01T06:53:25.354Z,-2.23
2016-12-01T06:54:25.315Z,-2.15
2016-12-01T06:55:25.155Z,-2.13
2016-12-01T06:56:25.124Z,-2.18
2016-12-01T06:57:25.072Z,-2.08
2016-12-01T06:58:25.025Z,-2.03
2016-12-01T06:59:24.982Z,-2.12
2016-12-01T07:00:24.936Z,-1.98
2016-12-01T07:01:24.895Z,-1.95
2016-12-01T07:02:24.550Z,-1.94
2016-12-01T07:03:24.208Z,-2.1
2016-12-01T07:04:24.763Z,-2
2016-12-01T07:05:24.734Z,-2.06
2016-12-01T07:06:24.675Z,-2.13
2016-12-01T07:07:24.331Z,-2.09
2016-12-01T07:08:24.294Z,-2
2016-12-01T07:09:24.550Z,-2
2016-12-01T07:10:24.506Z,-1.91
2016-12-01T07:11:24.464Z,-1.9
2016-12-01T07:12:24.121Z,-1.88
2016-12-01T07:13:24.090Z,-1.91
2016-12-01T07:14:24.334Z,-1.95
2016-12-01T07:15:24.291Z,-1.79
2016-12-01T07:16:23.949Z,-1.79
2016-12-01T07:17:23.901Z,-1.76
2016-12-01T07:18:23.864Z,-1.73
2016-12-01T07:19:24.116Z,-1.62
2016-12-01T07:20:23.777Z,-1.55
2016-12-01T07:21:24.034Z,-1.51
2016-12-01T07:22:23.691Z,-1.46
2016-12-01T07:23:23.643Z,-1.49
2016-12-01T07:24:23.302Z,-1.4
2016-12-01T07:25:23.553Z,-1.38
2016-12-01T07:26:23.814Z,-1.27
2016-12-01T07:27:23.798Z,-1.3
2016-12-01T07:28:23.743Z,-1.27
2016-12-01T07:29:23.700Z,-1.19
2016-12-01T07:30:23.345Z,-1.2
2016-12-01T07:31:23.602Z,-1.1
2016-12-01T07:32:23.259Z,-1.1
2016-12-01T07:33:23.514Z,-1.13
2016-12-01T07:34:23.169Z,-1.05
2016-12-01T07:35:23.466Z,-0.99
2016-12-01T07:36:23.080Z,-0.86
2016-12-01T07:37:23.343Z,-0.89
2016-12-01T07:38:23.304Z,-0.89
2016-12-01T07:39:23.257Z,-0.76
2016-12-01T07:40:23.220Z,-0.78
2016-12-01T07:41:22.870Z,-0.7
2016-12-01T07:42:23.129Z,-0.69
2016-12-01T07:43:23.088Z,-0.65
2016-12-01T07:44:23.047Z,-0.58
2016-12-01T07:45:23.006Z,-0.64
2016-12-01T07:46:22.655Z,-0.6
2016-12-01T07:47:22.641Z,-0.55
2016-12-01T07:48:22.572Z,-0.58
2016-12-01T07:49:22.531Z,-0.57
2016-12-01T07:50:22.788Z,-0.58
2016-12-01T07:51:22.748Z,-0.61
2016-12-01T07:52:22.706Z,-0.54
2016-12-01T07:53:22.665Z,-0.52
2016-12-01T07:54:22.320Z,-0.46
2016-12-01T07:55:22.279Z,-0.51
2016-12-01T07:56:22.531Z,-0.33
2016-12-01T07:57:22.489Z,-0.43
2016-12-01T07:58:22.451Z,-0.34
2016-12-01T07:59:22.105Z,-0.26
2016-12-01T08:00:22.060Z,-0.26
2016-12-01T08:01:22.022Z,-0.25
2016-12-01T08:02:21.978Z,-0.16
2016-12-01T08:03:22.265Z,-0.15
2016-12-01T08:04:21.896Z,-0.07
2016-12-01T08:05:22.153Z,-0.05
2016-12-01T08:06:22.304Z,0
2016-12-01T08:07:22.067Z,0.02
2016-12-01T08:08:21.725Z,0.07
2016-12-01T08:09:21.991Z,0.08
2016-12-01T08:10:21.639Z,0.04
2016-12-01T08:11:21.898Z,0.08
2016-12-01T08:12:21.857Z,0.13
2016-12-01T08:13:21.817Z,0.13
2016-12-01T08:14:21.770Z,0.11
2016-12-01T08:15:21.728Z,0.2
2016-12-01T08:16:21.684Z,0.2
2016-12-01T08:17:21.646Z,0.26
2016-12-01T08:18:21.305Z,0.24
2016-12-01T08:19:20.960Z,0.18
2016-12-01T08:20:21.247Z,0.28
2016-12-01T08:21:21.479Z,0.29
2016-12-01T08:22:21.441Z,0.28
2016-12-01T08:23:21.094Z,0.33
2016-12-01T08:24:21.352Z,0.41
2016-12-01T08:25:21.312Z,0.33
2016-12-01T08:26:21.268Z,0.38
2016-12-01T08:27:20.618Z,0.42
2016-12-01T08:28:20.877Z,0.44
2016-12-01T08:29:21.142Z,0.46
2016-12-01T08:30:21.096Z,0.55
2016-12-01T08:31:20.753Z,0.61
2016-12-01T08:32:21.013Z,0.7
2016-12-01T08:33:20.973Z,0.75
2016-12-01T08:34:20.936Z,0.73
2016-12-01T08:35:20.886Z,0.88
2016-12-01T08:36:20.847Z,0.91
2016-12-01T08:37:20.808Z,0.9
2016-12-01T08:38:20.962Z,1.04
2016-12-01T08:39:20.721Z,1.06
2016-12-01T08:40:20.676Z,1.04
2016-12-01T08:41:20.334Z,1.06
2016-12-01T08:42:20.290Z,1.14
2016-12-01T08:43:20.553Z,1.24
2016-12-01T08:44:20.513Z,1.27
2016-12-01T08:45:20.472Z,1.18
2016-12-01T08:46:20.439Z,1.32
2016-12-01T08:47:20.081Z,1.3
2016-12-01T08:48:20.347Z,1.33
2016-12-01T08:49:20.305Z,1.41
2016-12-01T08:50:19.956Z,1.47
2016-12-01T08:51:19.917Z,1.51
2016-12-01T08:52:19.575Z,1.5
2016-12-01T08:53:20.140Z,1.63
2016-12-01T08:54:20.097Z,1.55
2016-12-01T08:55:20.059Z,1.48
2016-12-01T08:56:20.015Z,1.58
2016-12-01T08:57:19.666Z,1.6
2016-12-01T08:58:19.629Z,1.58
2016-12-01T08:59:19.887Z,1.55
2016-12-01T09:00:19.850Z,1.6
2016-12-01T09:01:19.809Z,1.55
2016-12-01T09:02:19.769Z,1.59
2016-12-01T09:03:19.421Z,1.66
2016-12-01T09:04:19.684Z,1.58
2016-12-01T09:05:19.650Z,1.59
2016-12-01T09:06:19.317Z,1.62
2016-12-01T09:07:19.558Z,1.69
2016-12-01T09:08:19.518Z,1.69
2016-12-01T09:09:18.875Z,1.72
2016-12-01T09:10:19.436Z,1.8
2016-12-01T09:11:19.092Z,1.86
2016-12-01T09:12:18.750Z,2
2016-12-01T09:13:19.320Z,1.93
2016-12-01T09:14:19.270Z,2.05
2016-12-01T09:15:19.238Z,2.09
2016-12-01T09:16:19.191Z,2.18
2016-12-01T09:17:18.846Z,2.17
2016-12-01T09:18:19.121Z,2.21
2016-12-01T09:19:19.065Z,2.3
2016-12-01T09:20:18.730Z,2.3
2016-12-01T09:21:18.983Z,2.31
2016-12-01T09:22:18.643Z,2.31
2016-12-01T09:23:18.613Z,2.45
2016-12-01T09:24:18.868Z,2.45
2016-12-01T09:25:18.818Z,2.59
2016-12-01T09:26:18.810Z,2.63
2016-12-01T09:27:18.737Z,2.71
2016-12-01T09:28:18.699Z,2.72
2016-12-01T09:29:18.357Z,2.77
2016-12-01T09:30:18.617Z,2.93
2016-12-01T09:31:18.583Z,2.79
2016-12-01T09:32:18.237Z,2.92
2016-12-01T09:33:18.194Z,2.92
2016-12-01T09:34:18.450Z,2.96
2016-12-01T09:35:18.418Z,3.14
2016-12-01T09:36:18.372Z,3.21
2016-12-01T09:37:18.333Z,3.29
2016-12-01T09:38:17.988Z,3.47
2016-12-01T09:39:17.948Z,3.55
2016-12-01T09:40:18.208Z,3.61
2016-12-01T09:41:17.863Z,3.72
2016-12-01T09:42:17.822Z,3.72
2016-12-01T09:43:18.085Z,3.84
2016-12-01T09:44:17.752Z,4.02
2016-12-01T09:45:18.012Z,4.14
2016-12-01T09:46:17.965Z,4.16
2016-12-01T09:47:17.927Z,4.15
2016-12-01T09:48:17.280Z,4.24
2016-12-01T09:49:17.845Z,4.2
2016-12-01T09:50:17.503Z,4.26
2016-12-01T09:51:17.464Z,4.45
2016-12-01T09:52:17.425Z,4.52
2016-12-01T09:53:17.383Z,4.55
2016-12-01T09:54:17.649Z,4.5
2016-12-01T09:55:17.603Z,4.44
2016-12-01T09:56:17.267Z,4.45
2016-12-01T09:57:17.527Z,4.55
2016-12-01T09:58:17.179Z,4.54
2016-12-01T09:59:17.452Z,4.72
2016-12-01T10:00:17.408Z,4.86
2016-12-01T10:01:17.374Z,4.86
2016-12-01T10:02:17.024Z,4.88
2016-12-01T10:03:17.315Z,4.82
2016-12-01T10:04:16.948Z,4.88
2016-12-01T10:05:16.910Z,4.94
2016-12-01T10:06:17.172Z,5.06
2016-12-01T10:07:16.835Z,5.18
2016-12-01T10:08:17.095Z,5.18
2016-12-01T10:09:17.056Z,5.22
2016-12-01T10:10:16.743Z,5.39
2016-12-01T10:11:16.979Z,5.33
2016-12-01T10:12:16.652Z,5.43
2016-12-01T10:13:16.894Z,5.48
2016-12-01T10:14:16.860Z,5.45
2016-12-01T10:15:16.522Z,5.45
2016-12-01T10:16:16.477Z,5.57
2016-12-01T10:17:16.749Z,5.65
2016-12-01T10:18:16.701Z,5.74
2016-12-01T10:19:16.673Z,5.74
2016-12-01T10:20:16.627Z,5.81
2016-12-01T10:21:16.596Z,5.82
2016-12-01T10:22:16.549Z,5.89
2016-12-01T10:23:16.205Z,6
2016-12-01T10:24:16.169Z,6.03
2016-12-01T10:25:16.439Z,6.06
2016-12-01T10:26:16.120Z,6.06
2016-12-01T10:27:16.354Z,5.99
2016-12-01T10:28:16.319Z,5.96
2016-12-01T10:29:16.283Z,5.94
2016-12-01T10:30:16.240Z,5.83
2016-12-01T10:31:15.899Z,5.89
2016-12-01T10:32:15.863Z,5.85
2016-12-01T10:33:16.124Z,5.74
2016-12-01T10:34:15.500Z,5.68
2016-12-01T10:35:16.047Z,5.68
2016-12-01T10:36:16.009Z,5.74
2016-12-01T10:37:15.675Z,5.65
2016-12-01T10:38:15.932Z,5.54
2016-12-01T10:39:15.895Z,5.57
2016-12-01T10:40:15.563Z,5.57
2016-12-01T10:41:15.513Z,5.72
2016-12-01T10:42:15.783Z,5.83
2016-12-01T10:43:15.738Z,6.41
2016-12-01T10:44:15.702Z,7.2
2016-12-01T10:45:15.660Z,8.05
2016-12-01T10:46:15.625Z,9.04
2016-12-01T10:47:15.284Z,10.08
2016-12-01T10:48:15.551Z,10.91
2016-12-01T10:49:15.513Z,11.58
2016-12-01T10:50:15.477Z,12.09
2016-12-01T10:51:15.442Z,12.56
2016-12-01T10:52:15.401Z,12.97
2016-12-01T10:53:15.369Z,13
2016-12-01T10:54:15.334Z,13.14
2016-12-01T10:55:14.993Z,13.32
2016-12-01T10:56:14.962Z,13.51
2016-12-01T10:57:15.225Z,13.71
2016-12-01T10:58:15.192Z,13.99
2016-12-01T10:59:15.155Z,14.24
2016-12-01T11:00:14.522Z,14.29
2016-12-01T11:01:15.092Z,14.14
2016-12-01T11:02:15.054Z,13.95
2016-12-01T11:03:14.718Z,13.89
2016-12-01T11:04:14.991Z,13.79
2016-12-01T11:05:14.675Z,13.67
2016-12-01T11:06:14.925Z,13.66
2016-12-01T11:07:14.598Z,13.81
2016-12-01T11:08:14.857Z,13.79
2016-12-01T11:09:14.865Z,13.87
2016-12-01T11:10:14.792Z,14.12
2016-12-01T11:11:14.468Z,14.35
2016-12-01T11:12:14.752Z,14.39
2016-12-01T11:13:14.696Z,14.39
2016-12-01T11:14:14.360Z,14.47
2016-12-01T11:15:14.630Z,14.47
2016-12-01T11:16:14.288Z,14.4
2016-12-01T11:17:14.562Z,14.45
2016-12-01T11:18:14.532Z,14.42
2016-12-01T11:19:14.497Z,14.54
2016-12-01T11:20:13.863Z,14.5
2016-12-01T11:21:14.434Z,14.37
2016-12-01T11:22:14.429Z,14.28
2016-12-01T11:23:14.068Z,14.35
2016-12-01T11:24:13.734Z,14.25
2016-12-01T11:25:14.304Z,14.18
2016-12-01T11:26:14.277Z,14.12
2016-12-01T11:27:13.934Z,14.25
2016-12-01T11:28:13.600Z,14.39
2016-12-01T11:29:14.176Z,14.4
2016-12-01T11:30:13.837Z,14.52
2016-12-01T11:31:14.106Z,14.42
2016-12-01T11:32:14.072Z,14.43
2016-12-01T11:33:14.047Z,14.35
2016-12-01T11:34:13.711Z,14.33
2016-12-01T11:35:13.975Z,14.35
2016-12-01T11:36:13.943Z,14.35
2016-12-01T11:37:13.913Z,14.27
2016-12-01T11:38:13.572Z,14.15
2016-12-01T11:39:13.539Z,14.04
2016-12-01T11:40:13.807Z,13.95
2016-12-01T11:41:13.468Z,13.84
2016-12-01T11:42:13.434Z,13.67
2016-12-01T11:43:13.704Z,13.49
2016-12-01T11:44:13.364Z,13.39
2016-12-01T11:45:13.331Z,13.08
2016-12-01T11:46:13.597Z,12.57
2016-12-01T11:47:13.570Z,12.29
2016-12-01T11:48:13.529Z,12.31
2016-12-01T11:49:13.491Z,12.28
2016-12-01T11:50:13.458Z,12.19
2016-12-01T11:51:13.121Z,12.07
2016-12-01T11:52:13.388Z,12.12
2016-12-01T11:53:13.045Z,12.1
2016-12-01T11:54:13.321Z,12.2
2016-12-01T11:55:13.277Z,12.31
2016-12-01T11:56:13.249Z,12.27
2016-12-01T11:57:12.906Z,12.5
2016-12-01T11:58:13.174Z,12.37
2016-12-01T11:59:12.835Z,12.31
2016-12-01T12:00:12.799Z,12.32
2016-12-01T12:01:13.063Z,12.31
2016-12-01T12:02:13.024Z,12.14
2016-12-01T12:03:12.988Z,11.91
2016-12-01T12:04:12.951Z,11.43
2016-12-01T12:05:12.612Z,10.71
2016-12-01T12:06:12.573Z,10.33
2016-12-01T12:07:12.841Z,9.96
2016-12-01T12:08:12.207Z,9.56
2016-12-01T12:09:12.765Z,9.26
2016-12-01T12:10:12.127Z,9.13
2016-12-01T12:11:12.390Z,8.8
2016-12-01T12:12:12.655Z,8.44
2016-12-01T12:13:12.317Z,8.23
2016-12-01T12:14:12.276Z,8.04
2016-12-01T12:15:12.548Z,7.86
2016-12-01T12:16:12.509Z,7.8
2016-12-01T12:17:12.173Z,7.69
2016-12-01T12:18:12.428Z,7.69
2016-12-01T12:19:12.391Z,7.71
2016-12-01T12:20:12.360Z,7.74
2016-12-01T12:21:12.316Z,7.67
2016-12-01T12:22:11.985Z,7.68
2016-12-01T12:23:12.271Z,7.63
2016-12-01T12:24:11.900Z,7.48
2016-12-01T12:25:11.859Z,7.53
2016-12-01T12:26:11.825Z,7.46
2016-12-01T12:27:11.786Z,7.35
2016-12-01T12:28:12.053Z,7.21
2016-12-01T12:29:12.014Z,7.17
2016-12-01T12:30:11.974Z,7.13
2016-12-01T12:31:11.937Z,7.07
2016-12-01T12:32:11.899Z,6.94
2016-12-01T12:33:11.859Z,7.02
2016-12-01T12:34:11.217Z,6.97
2016-12-01T12:35:11.782Z,7.03
2016-12-01T12:36:11.439Z,6.94
2016-12-01T12:37:11.407Z,6.81
2016-12-01T12:38:11.673Z,6.85
2016-12-01T12:39:11.325Z,6.8
2016-12-01T12:40:10.987Z,6.84
2016-12-01T12:41:11.552Z,6.84
2016-12-01T12:42:11.213Z,6.85
2016-12-01T12:43:11.483Z,6.87
2016-12-01T12:44:11.130Z,6.88
2016-12-01T12:45:11.398Z,6.88
2016-12-01T12:46:11.056Z,6.85
2016-12-01T12:47:11.328Z,6.85
2016-12-01T12:48:11.279Z,6.84
2016-12-01T12:49:11.243Z,6.88
2016-12-01T12:50:10.900Z,6.94
2016-12-01T12:51:11.159Z,6.85
2016-12-01T12:52:10.522Z,6.81
2016-12-01T12:53:11.087Z,6.79
2016-12-01T12:54:10.748Z,6.79
2016-12-01T12:55:11.006Z,6.76
2016-12-01T12:56:10.975Z,6.73
2016-12-01T12:57:10.936Z,6.76
2016-12-01T12:58:10.591Z,6.85
2016-12-01T12:59:10.551Z,6.92
2016-12-01T13:00:10.817Z,6.8
2016-12-01T13:01:10.780Z,6.81
2016-12-01T13:02:10.737Z,6.73
2016-12-01T13:03:10.396Z,6.77